Terminal Aerodrome Forecast
Issued by NWS Charleston, WV

Current Version | Previous Version | Graphics & Text | Print | Product List | Glossary On
Versions: 1 2 3 4 5 6 7 8 9 10 11 12 13 14 15 16 17 18 19 20 21 22 23
672
FTUS41 KRLX 111720
TAFEKN
TAF
KEKN 111720Z 1118/1218 22004KT P6SM BKN100
     FM120500 20006KT P6SM BKN150
     FM120800 23007KT P6SM BKN050
     FM121100 24009G16KT 5SM -SHSN BKN015
     FM121500 27011G21KT 3SM -SHSN BKN008=

USA.gov is the U.S. government's official web portal to all federal, state and local government web resources and services.